createdAt,value
2023-05-15T00:00:25.983Z,0.05
2023-05-15T00:01:26.046Z,0.11
2023-05-15T00:02:26.143Z,0.21
2023-05-15T00:03:26.229Z,0.28
2023-05-15T00:04:26.354Z,0.26
2023-05-15T00:05:26.396Z,0.14
2023-05-15T00:06:26.194Z,0.20
2023-05-15T00:07:26.184Z,0.19
2023-05-15T00:08:26.201Z,0.21
2023-05-15T00:09:26.236Z,0.09
2023-05-15T00:10:26.251Z,0.09
2023-05-15T00:11:26.315Z,0.03
2023-05-15T00:12:26.378Z,0.14
2023-05-15T00:13:26.439Z,0.11
2023-05-15T00:14:26.653Z,0.13
2023-05-15T00:15:26.760Z,0.21
2023-05-15T00:16:26.765Z,0.11
2023-05-15T00:17:26.934Z,0.11
2023-05-15T00:18:27.033Z,0.14
2023-05-15T00:19:27.184Z,0.17
2023-05-15T00:20:27.295Z,0.19
2023-05-15T00:21:27.406Z,0.09
2023-05-15T00:22:27.541Z,0.04
2023-05-15T00:23:27.637Z,0.14
2023-05-15T00:24:27.743Z,0.19
2023-05-15T00:25:27.852Z,0.05
2023-05-15T00:26:28.001Z,0.07
2023-05-15T00:27:28.110Z,0.09
2023-05-15T00:28:28.166Z,0.18
2023-05-15T00:29:28.278Z,0.19
2023-05-15T00:30:28.406Z,0.10
2023-05-15T00:31:28.546Z,0.19
2023-05-15T00:32:28.620Z,0.03
2023-05-15T00:33:28.723Z,0.10
2023-05-15T00:34:28.825Z,0.30
2023-05-15T00:35:29.084Z,0.17
2023-05-15T00:36:29.061Z,0.29
2023-05-15T00:37:29.227Z,0.15
2023-05-15T00:38:29.266Z,0.19
2023-05-15T00:39:29.391Z,0.09
2023-05-15T00:40:29.527Z,0.09
2023-05-15T00:41:29.652Z,0.16
2023-05-15T00:42:29.804Z,0.12
2023-05-15T00:43:29.914Z,0.27
2023-05-15T00:44:30.031Z,0.13
2023-05-15T00:45:30.195Z,0.09
2023-05-15T00:46:30.404Z,0.08
2023-05-15T00:47:30.471Z,0.15
2023-05-15T00:48:30.677Z,0.24
2023-05-15T00:49:30.704Z,0.18
2023-05-15T00:50:30.832Z,0.30
2023-05-15T00:51:30.999Z,0.16
2023-05-15T00:52:31.126Z,0.17
2023-05-15T00:53:31.278Z,0.09
2023-05-15T00:54:31.349Z,0.11
2023-05-15T00:55:31.484Z,0.18
2023-05-15T00:56:31.657Z,0.12
2023-05-15T00:57:31.758Z,0.10
2023-05-15T00:58:31.895Z,0.12
2023-05-15T00:59:32.034Z,0.09
2023-05-15T01:00:32.283Z,0.13
2023-05-15T01:01:32.420Z,0.13
2023-05-15T01:02:32.476Z,0.19
2023-05-15T01:03:32.641Z,0.02
2023-05-15T01:04:32.741Z,0.01
2023-05-15T01:05:32.845Z,0.11
2023-05-15T01:06:32.944Z,0.21
2023-05-15T01:07:33.046Z,0.13
2023-05-15T01:08:33.219Z,0.06
2023-05-15T01:09:33.525Z,0.12
2023-05-15T01:10:33.473Z,0.19
2023-05-15T01:11:33.636Z,0.08
2023-05-15T01:12:33.777Z,0.06
2023-05-15T01:13:33.910Z,0.24
2023-05-15T01:14:34.082Z,0.11
2023-05-15T01:15:34.239Z,0.13
2023-05-15T01:16:34.352Z,0.13
2023-05-15T01:17:34.494Z,0.14
2023-05-15T01:18:34.690Z,0.11
2023-05-15T01:19:34.838Z,0.11
2023-05-15T01:20:34.937Z,0.11
2023-05-15T01:21:35.009Z,0.14
2023-05-15T01:22:35.127Z,0.09
2023-05-15T01:23:35.269Z,0.21
2023-05-15T01:24:35.424Z,0.12
2023-05-15T01:25:35.576Z,0.22
2023-05-15T01:26:35.758Z,0.06
2023-05-15T01:27:35.867Z,0.11
2023-05-15T01:28:35.890Z,0.24
2023-05-15T01:29:36.111Z,0.09
2023-05-15T01:30:36.062Z,0.14
2023-05-15T01:31:36.254Z,0.18
2023-05-15T01:32:36.379Z,0.10
2023-05-15T01:33:36.452Z,0.12
2023-05-15T01:34:36.614Z,0.15
2023-05-15T01:35:36.659Z,0.18
2023-05-15T01:36:36.787Z,0.09
2023-05-15T01:37:36.888Z,0.16
2023-05-15T01:38:37.035Z,0.20
2023-05-15T01:39:37.173Z,0.22
2023-05-15T01:40:37.350Z,0.09
2023-05-15T01:41:37.481Z,0.12
2023-05-15T01:42:37.604Z,0.09
2023-05-15T01:43:37.723Z,0.12
2023-05-15T01:44:37.866Z,0.16
2023-05-15T01:45:37.997Z,0.13
2023-05-15T01:46:38.192Z,0.15
2023-05-15T01:47:38.287Z,0.09
2023-05-15T01:48:38.350Z,0.14
2023-05-15T01:49:38.511Z,0.35
2023-05-15T01:50:38.669Z,0.12
2023-05-15T01:51:38.759Z,0.34
2023-05-15T01:52:38.909Z,0.24
2023-05-15T01:53:39.073Z,0.22
2023-05-15T01:54:39.150Z,0.32
2023-05-15T01:55:39.307Z,0.15
2023-05-15T01:56:39.442Z,0.13
2023-05-15T01:57:39.615Z,0.38
2023-05-15T01:58:39.829Z,0.08
2023-05-15T01:59:39.909Z,0.15
2023-05-15T02:00:41.619Z,0.10
2023-05-15T02:01:40.122Z,0.09
2023-05-15T02:02:40.167Z,0.10
2023-05-15T02:03:40.288Z,0.16
2023-05-15T02:04:40.206Z,0.07
2023-05-15T02:05:40.212Z,0.04
2023-05-15T02:06:40.207Z,0.08
2023-05-15T02:07:40.268Z,0.09
2023-05-15T02:08:40.334Z,0.12
2023-05-15T02:09:40.387Z,0.06
2023-05-15T02:10:40.408Z,0.15
2023-05-15T02:11:40.526Z,0.03
2023-05-15T02:12:40.622Z,0.10
2023-05-15T02:13:40.694Z,0.12
2023-05-15T02:14:40.638Z,0.10
2023-05-15T02:15:40.686Z,0.19
2023-05-15T02:16:40.751Z,0.05
2023-05-15T02:17:40.736Z,0.16
2023-05-15T02:18:40.818Z,0.08
2023-05-15T02:19:40.771Z,0.04
2023-05-15T02:20:40.829Z,0.16
2023-05-15T02:21:40.944Z,0.09
2023-05-15T02:22:41.012Z,0.33
2023-05-15T02:23:41.052Z,0.31
2023-05-15T02:24:41.070Z,0.19
2023-05-15T02:25:41.073Z,0.09
2023-05-15T02:26:41.076Z,0.12
2023-05-15T02:27:41.073Z,0.17
2023-05-15T02:28:41.046Z,0.15
2023-05-15T02:29:41.171Z,0.12
2023-05-15T02:30:41.228Z,0.20
2023-05-15T02:31:41.437Z,0.21
2023-05-15T02:32:41.427Z,0.11
2023-05-15T02:33:41.323Z,0.15
2023-05-15T02:34:41.357Z,0.22
2023-05-15T02:35:41.346Z,0.18
2023-05-15T02:36:41.354Z,0.17
2023-05-15T02:37:41.358Z,0.14
2023-05-15T02:38:41.376Z,0.17
2023-05-15T02:39:41.363Z,0.11
2023-05-15T02:40:41.441Z,0.22
2023-05-15T02:41:41.526Z,0.17
2023-05-15T02:42:41.797Z,0.05
2023-05-15T02:43:41.844Z,0.13
2023-05-15T02:44:41.960Z,0.67
2023-05-15T02:45:42.147Z,0.09
2023-05-15T02:46:42.272Z,0.20
2023-05-15T02:47:42.479Z,0.07
2023-05-15T02:48:42.648Z,0.04
2023-05-15T02:49:42.797Z,0.10
2023-05-15T02:50:42.934Z,0.11
2023-05-15T02:51:43.096Z,0.07
2023-05-15T02:52:43.297Z,0.11
2023-05-15T02:53:43.423Z,0.17
2023-05-15T02:54:43.523Z,0.07
2023-05-15T02:55:43.695Z,0.08
2023-05-15T02:56:43.758Z,0.17
2023-05-15T02:57:43.900Z,0.16
2023-05-15T02:58:44.064Z,0.18
2023-05-15T02:59:44.342Z,0.10
2023-05-15T03:00:44.330Z,0.14
2023-05-15T03:01:44.479Z,0.05
2023-05-15T03:02:44.602Z,0.07
2023-05-15T03:03:44.836Z,0.13
2023-05-15T03:04:44.836Z,0.15
2023-05-15T03:05:44.915Z,0.09
2023-05-15T03:06:45.104Z,0.07
2023-05-15T03:07:45.138Z,0.05
2023-05-15T03:08:45.214Z,0.05
2023-05-15T03:09:45.382Z,0.09
2023-05-15T03:10:45.535Z,0.21
2023-05-15T03:11:45.676Z,0.14
2023-05-15T03:12:45.749Z,0.14
2023-05-15T03:13:45.898Z,0.10
2023-05-15T03:14:45.970Z,0.12
2023-05-15T03:15:46.177Z,0.16
2023-05-15T03:16:46.293Z,0.13
2023-05-15T03:17:46.482Z,0.08
2023-05-15T03:18:46.532Z,0.18
2023-05-15T03:19:46.613Z,0.14
2023-05-15T03:20:46.770Z,0.04
2023-05-15T03:21:46.904Z,0.10
2023-05-15T03:22:47.045Z,0.25
2023-05-15T03:23:47.291Z,0.12
2023-05-15T03:24:47.304Z,0.20
2023-05-15T03:25:47.419Z,0.12
2023-05-15T03:26:47.589Z,0.13
2023-05-15T03:27:47.692Z,0.05
2023-05-15T03:28:47.847Z,0.12
2023-05-15T03:29:47.980Z,0.26
2023-05-15T03:30:48.050Z,0.14
2023-05-15T03:31:48.320Z,0.13
2023-05-15T03:32:48.404Z,0.17
2023-05-15T03:33:48.445Z,0.25
2023-05-15T03:34:48.551Z,0.21
2023-05-15T03:35:48.704Z,0.13
2023-05-15T03:36:48.725Z,0.12
2023-05-15T03:37:48.857Z,0.05
2023-05-15T03:38:49.000Z,0.06
2023-05-15T03:39:49.080Z,0.06
2023-05-15T03:40:51.081Z,0.19
2023-05-15T03:41:49.326Z,0.10
2023-05-15T03:42:49.298Z,0.15
2023-05-15T03:43:49.323Z,0.04
2023-05-15T03:44:49.342Z,0.20
2023-05-15T03:45:49.295Z,0.14
2023-05-15T03:46:49.351Z,0.04
2023-05-15T03:47:49.413Z,0.17
2023-05-15T03:48:49.322Z,0.17
2023-05-15T03:49:49.331Z,0.07
2023-05-15T03:50:49.291Z,0.14
2023-05-15T03:51:49.402Z,0.05
2023-05-15T03:52:49.507Z,0.14
2023-05-15T03:53:49.561Z,0.17
2023-05-15T03:54:49.553Z,0.15
2023-05-15T03:55:49.573Z,0.05
2023-05-15T03:56:49.574Z,0.13
2023-05-15T03:57:49.586Z,0.19
2023-05-15T03:58:49.540Z,0.08
2023-05-15T03:59:49.550Z,0.16
2023-05-15T04:00:49.659Z,0.06
2023-05-15T04:02:03.648Z,0.20
2023-05-15T04:02:50.753Z,0.25
2023-05-15T04:03:49.695Z,0.24
2023-05-15T04:04:49.680Z,0.14
2023-05-15T04:05:49.627Z,0.23
2023-05-15T04:06:49.593Z,0.14
2023-05-15T04:07:49.682Z,0.05
2023-05-15T04:08:49.730Z,0.09
2023-05-15T04:09:49.612Z,0.13
2023-05-15T04:10:49.627Z,0.05
2023-05-15T04:11:49.630Z,0.15
2023-05-15T04:12:49.587Z,0.14
2023-05-15T04:13:49.589Z,0.14
2023-05-15T04:14:50.223Z,0.18
2023-05-15T04:15:49.602Z,0.23
2023-05-15T04:16:49.567Z,0.15
2023-05-15T04:17:49.620Z,0.11
2023-05-15T04:18:49.610Z,0.06
2023-05-15T04:19:49.527Z,0.19
2023-05-15T04:20:49.530Z,0.28
2023-05-15T04:21:49.551Z,0.16
2023-05-15T04:22:49.518Z,0.11
2023-05-15T04:23:49.516Z,0.11
2023-05-15T04:24:49.491Z,0.16
2023-05-15T04:25:49.511Z,0.21
2023-05-15T04:26:49.543Z,0.30
2023-05-15T04:27:49.505Z,0.15
2023-05-15T04:29:02.933Z,0.22
2023-05-15T04:29:51.187Z,0.15
2023-05-15T04:30:49.459Z,0.11
2023-05-15T04:31:49.481Z,0.12
2023-05-15T04:32:49.591Z,0.08
2023-05-15T04:33:51.284Z,0.08
2023-05-15T04:34:49.421Z,0.09
2023-05-15T04:35:49.434Z,0.08
2023-05-15T04:36:49.449Z,0.14
2023-05-15T04:37:49.443Z,0.27
2023-05-15T04:38:49.414Z,0.09
2023-05-15T04:39:49.459Z,0.25
2023-05-15T04:40:49.419Z,0.52
2023-05-15T04:41:49.412Z,0.18
2023-05-15T04:42:49.441Z,0.21
2023-05-15T04:43:49.385Z,0.30
2023-05-15T04:44:49.401Z,0.23
2023-05-15T04:45:49.361Z,0.19
2023-05-15T04:46:49.371Z,0.13
2023-05-15T04:47:49.438Z,0.13
2023-05-15T04:48:49.481Z,0.16
2023-05-15T04:49:49.424Z,0.14
2023-05-15T04:50:49.492Z,0.12
2023-05-15T04:51:49.443Z,0.23
2023-05-15T04:52:49.452Z,0.11
2023-05-15T04:53:49.582Z,0.15
2023-05-15T04:54:49.549Z,0.27
2023-05-15T04:55:49.560Z,0.16
2023-05-15T04:56:49.581Z,0.09
2023-05-15T04:57:49.589Z,0.21
2023-05-15T04:58:49.592Z,0.18
2023-05-15T04:59:49.644Z,0.32
2023-05-15T05:00:49.693Z,0.19
2023-05-15T05:01:49.822Z,0.24
2023-05-15T05:02:49.763Z,0.26
2023-05-15T05:03:49.761Z,0.16
2023-05-15T05:04:49.743Z,0.18
2023-05-15T05:05:49.813Z,0.18
2023-05-15T05:06:49.878Z,0.25
2023-05-15T05:07:50.027Z,0.10
2023-05-15T05:08:49.979Z,0.15
2023-05-15T05:09:49.980Z,0.21
2023-05-15T05:10:49.975Z,0.06
2023-05-15T05:11:49.997Z,0.15
2023-05-15T05:12:50.093Z,0.18
2023-05-15T05:13:50.266Z,0.20
2023-05-15T05:14:50.414Z,0.28
2023-05-15T05:15:50.558Z,0.26
2023-05-15T05:16:50.635Z,0.10
2023-05-15T05:17:50.936Z,0.18
2023-05-15T05:18:51.026Z,0.21
2023-05-15T05:19:51.033Z,0.20
2023-05-15T05:20:51.065Z,0.10
2023-05-15T05:21:51.243Z,0.42
2023-05-15T05:22:51.392Z,0.14
2023-05-15T05:23:51.467Z,0.27
2023-05-15T05:24:51.696Z,0.17
2023-05-15T05:25:51.746Z,0.31
2023-05-15T05:26:51.937Z,0.24
2023-05-15T05:27:52.068Z,0.30
2023-05-15T05:28:52.183Z,0.29
2023-05-15T05:29:52.367Z,0.20
2023-05-15T05:30:52.536Z,0.28
2023-05-15T05:31:52.779Z,0.28
2023-05-15T05:32:52.879Z,0.23
2023-05-15T05:33:52.948Z,0.17
2023-05-15T05:34:53.028Z,0.35
2023-05-15T05:35:53.147Z,0.41
2023-05-15T05:36:53.335Z,0.33
2023-05-15T05:37:53.433Z,0.47
2023-05-15T05:38:53.558Z,0.52
2023-05-15T05:39:53.732Z,0.42
2023-05-15T05:40:53.832Z,0.46
2023-05-15T05:41:53.948Z,0.56
2023-05-15T05:42:54.091Z,0.41
2023-05-15T05:43:54.198Z,0.96
2023-05-15T05:44:54.375Z,0.75
2023-05-15T05:45:54.531Z,1.00
2023-05-15T05:46:54.771Z,1.12
2023-05-15T05:47:54.923Z,1.15
2023-05-15T05:48:55.048Z,1.41
2023-05-15T05:49:55.230Z,1.02
2023-05-15T05:50:55.268Z,1.86
2023-05-15T05:51:55.447Z,1.31
2023-05-15T05:52:55.647Z,1.71
2023-05-15T05:53:55.806Z,1.70
2023-05-15T05:54:55.979Z,1.86
2023-05-15T05:55:56.151Z,3.34
2023-05-15T05:56:56.333Z,2.55
2023-05-15T05:57:56.448Z,1.77
2023-05-15T05:58:56.610Z,1.70
2023-05-15T05:59:56.826Z,1.99
2023-05-15T06:00:56.969Z,2.88
2023-05-15T06:01:57.224Z,1.75
2023-05-15T06:02:57.552Z,2.10
2023-05-15T06:03:57.729Z,3.30
2023-05-15T06:04:57.717Z,1.56
2023-05-15T06:05:57.883Z,1.91
2023-05-15T06:06:58.084Z,1.74
2023-05-15T06:07:58.218Z,1.34
2023-05-15T06:08:58.434Z,1.66
2023-05-15T06:09:58.538Z,2.41
2023-05-15T06:10:58.696Z,1.33
2023-05-15T06:11:58.822Z,1.51
2023-05-15T06:12:58.998Z,1.43
2023-05-15T06:13:59.234Z,1.53
2023-05-15T06:14:59.384Z,1.40
2023-05-15T06:15:59.548Z,1.83
2023-05-15T06:16:59.856Z,1.45
2023-05-15T06:17:59.971Z,1.82
2023-05-15T06:19:00.255Z,1.15
2023-05-15T06:20:00.281Z,1.48
2023-05-15T06:21:00.435Z,1.70
2023-05-15T06:22:00.875Z,1.36
2023-05-15T06:23:00.758Z,1.39
2023-05-15T06:24:00.925Z,1.30
2023-05-15T06:25:01.138Z,1.25
2023-05-15T06:26:01.295Z,1.72
2023-05-15T06:27:01.838Z,0.74
2023-05-15T06:28:02.748Z,1.48
2023-05-15T06:29:01.710Z,1.62
2023-05-15T06:30:01.688Z,1.41
2023-05-15T06:31:01.796Z,1.36
2023-05-15T06:32:01.700Z,0.94
2023-05-15T06:33:01.859Z,1.37
2023-05-15T06:34:01.934Z,1.05
2023-05-15T06:35:01.980Z,1.11
2023-05-15T06:36:02.112Z,1.23
2023-05-15T06:37:02.172Z,1.14
2023-05-15T06:38:02.153Z,1.25
2023-05-15T06:39:02.299Z,1.79
2023-05-15T06:40:02.224Z,1.00
2023-05-15T06:41:02.212Z,1.62
2023-05-15T06:42:02.233Z,1.46
2023-05-15T06:43:02.448Z,0.85
2023-05-15T06:44:02.242Z,1.17
2023-05-15T06:45:02.287Z,1.52
2023-05-15T06:46:02.429Z,1.07
2023-05-15T06:47:02.435Z,1.13
2023-05-15T06:48:02.504Z,1.35
2023-05-15T06:49:02.393Z,0.97
2023-05-15T06:50:02.434Z,1.21
2023-05-15T06:51:02.453Z,1.55
2023-05-15T06:52:02.442Z,1.10
2023-05-15T06:53:02.825Z,1.28
2023-05-15T06:54:02.515Z,1.11
2023-05-15T06:55:02.570Z,1.22
2023-05-15T06:56:02.645Z,1.15
2023-05-15T06:57:02.709Z,1.21
2023-05-15T06:58:02.698Z,1.22
2023-05-15T06:59:02.803Z,1.44
2023-05-15T07:00:03.795Z,0.88
2023-05-15T07:01:02.867Z,0.97
2023-05-15T07:02:03.031Z,1.16
2023-05-15T07:03:03.024Z,0.97
2023-05-15T07:04:03.162Z,1.07
2023-05-15T07:05:03.152Z,1.40
2023-05-15T07:06:03.165Z,1.47
2023-05-15T07:07:03.218Z,1.30
2023-05-15T07:08:04.311Z,1.08
2023-05-15T07:09:03.377Z,1.27
2023-05-15T07:10:03.389Z,1.13
2023-05-15T07:11:03.504Z,1.08
2023-05-15T07:12:03.558Z,1.20
2023-05-15T07:13:04.331Z,1.35
2023-05-15T07:14:03.679Z,1.01
2023-05-15T07:15:03.970Z,1.15
2023-05-15T07:16:03.750Z,1.49
2023-05-15T07:17:03.939Z,1.19
2023-05-15T07:18:04.356Z,1.65
2023-05-15T07:19:04.333Z,0.91
2023-05-15T07:20:05.216Z,0.92
2023-05-15T07:21:04.346Z,1.69
2023-05-15T07:22:04.664Z,1.18
2023-05-15T07:23:04.462Z,0.96
2023-05-15T07:24:04.464Z,1.08
2023-05-15T07:25:04.522Z,1.10
2023-05-15T07:26:04.640Z,1.17
2023-05-15T07:27:04.621Z,1.57
2023-05-15T07:28:04.702Z,1.62
2023-05-15T07:29:04.764Z,1.11
2023-05-15T07:30:04.813Z,1.30
2023-05-15T07:31:04.931Z,1.17
2023-05-15T07:32:06.846Z,1.51
2023-05-15T07:33:05.010Z,2.29
2023-05-15T07:34:06.880Z,1.39
2023-05-15T07:35:04.970Z,1.77
2023-05-15T07:36:04.960Z,1.81
2023-05-15T07:37:04.957Z,1.81
2023-05-15T07:38:05.047Z,1.79
2023-05-15T07:39:05.278Z,1.70
2023-05-15T07:40:05.028Z,2.02
2023-05-15T07:41:05.086Z,1.88
2023-05-15T07:42:05.128Z,1.78
2023-05-15T07:43:05.057Z,1.85
2023-05-15T07:44:05.134Z,1.63
2023-05-15T07:45:05.234Z,1.82
2023-05-15T07:46:05.261Z,1.54
2023-05-15T07:47:05.238Z,1.90
2023-05-15T07:48:05.382Z,1.48
2023-05-15T07:49:05.351Z,1.23
2023-05-15T07:50:05.476Z,1.69
2023-05-15T07:51:05.459Z,1.65
2023-05-15T07:52:05.522Z,1.86
2023-05-15T07:53:05.544Z,1.81
2023-05-15T07:54:05.603Z,1.45
2023-05-15T07:55:05.590Z,1.30
2023-05-15T07:56:05.649Z,2.04
2023-05-15T07:57:05.658Z,1.30
2023-05-15T07:58:05.706Z,1.87
2023-05-15T07:59:05.736Z,1.85
2023-05-15T08:00:05.937Z,1.63
2023-05-15T08:01:05.906Z,1.52
2023-05-15T08:02:05.798Z,1.79
2023-05-15T08:03:05.945Z,1.82
2023-05-15T08:04:05.915Z,2.62
2023-05-15T08:05:05.874Z,1.51
2023-05-15T08:06:05.869Z,1.54
2023-05-15T08:07:05.886Z,1.69
2023-05-15T08:08:05.884Z,1.83
2023-05-15T08:09:05.906Z,2.07
2023-05-15T08:10:05.900Z,1.69
2023-05-15T08:11:05.990Z,1.36
2023-05-15T08:12:05.907Z,2.20
2023-05-15T08:13:05.908Z,1.65
2023-05-15T08:14:06.039Z,1.94
2023-05-15T08:15:06.589Z,1.52
2023-05-15T08:16:06.279Z,2.15
2023-05-15T08:17:06.311Z,2.24
2023-05-15T08:18:06.087Z,1.78
2023-05-15T08:19:06.231Z,2.07
2023-05-15T08:20:05.958Z,2.80
2023-05-15T08:21:05.969Z,2.05
2023-05-15T08:22:05.985Z,5.52
2023-05-15T08:23:05.983Z,2.22
2023-05-15T08:24:05.944Z,2.58
2023-05-15T08:25:05.995Z,1.64
2023-05-15T08:26:06.068Z,1.83
2023-05-15T08:27:06.008Z,1.94
2023-05-15T08:28:06.021Z,1.71
2023-05-15T08:29:05.968Z,1.80
2023-05-15T08:30:06.080Z,2.96
2023-05-15T08:31:06.144Z,2.15
2023-05-15T08:32:06.049Z,2.32
2023-05-15T08:33:06.360Z,2.04
2023-05-15T08:34:06.142Z,2.10
2023-05-15T08:35:06.214Z,1.92
2023-05-15T08:36:06.312Z,1.77
2023-05-15T08:37:06.343Z,1.69
2023-05-15T08:38:06.306Z,2.06
2023-05-15T08:39:06.194Z,1.89
2023-05-15T08:40:06.271Z,1.62
2023-05-15T08:41:06.472Z,1.45
2023-05-15T08:42:06.320Z,1.74
2023-05-15T08:43:06.727Z,1.01
2023-05-15T08:44:09.819Z,1.86
2023-05-15T08:45:06.332Z,1.90
2023-05-15T08:46:06.683Z,1.85
2023-05-15T08:47:06.504Z,1.77
2023-05-15T08:48:06.362Z,1.39
2023-05-15T08:49:06.346Z,1.41
2023-05-15T08:50:06.346Z,1.61
2023-05-15T08:51:06.334Z,1.62
2023-05-15T08:52:06.274Z,1.43
2023-05-15T08:53:09.740Z,2.26
2023-05-15T08:54:06.310Z,1.79
2023-05-15T08:55:06.311Z,1.97
2023-05-15T08:56:06.262Z,1.86
2023-05-15T08:57:06.341Z,1.83
2023-05-15T08:58:06.338Z,2.00
2023-05-15T08:59:06.285Z,1.76
2023-05-15T09:00:08.208Z,1.83
2023-05-15T09:01:06.451Z,1.21
2023-05-15T09:02:06.604Z,1.72
2023-05-15T09:03:06.597Z,1.69
2023-05-15T09:04:06.953Z,1.83
2023-05-15T09:05:06.557Z,1.93
2023-05-15T09:06:06.697Z,1.78
2023-05-15T09:07:06.555Z,1.63
2023-05-15T09:08:06.670Z,2.01
2023-05-15T09:09:06.598Z,1.98
2023-05-15T09:10:06.871Z,1.98
2023-05-15T09:11:06.615Z,1.95
2023-05-15T09:12:06.617Z,2.43
2023-05-15T09:13:06.693Z,1.96
2023-05-15T09:14:06.714Z,2.07
2023-05-15T09:15:06.867Z,1.97
2023-05-15T09:16:06.706Z,1.95
2023-05-15T09:17:06.869Z,1.53
2023-05-15T09:18:06.786Z,2.61
2023-05-15T09:19:06.724Z,1.76
2023-05-15T09:20:07.356Z,2.06
2023-05-15T09:21:06.752Z,2.52
2023-05-15T09:22:06.762Z,2.67
2023-05-15T09:23:06.767Z,2.06
2023-05-15T09:24:06.764Z,2.49
2023-05-15T09:25:06.819Z,1.73
2023-05-15T09:26:06.905Z,2.28
2023-05-15T09:27:06.921Z,3.76
2023-05-15T09:28:07.351Z,2.36
2023-05-15T09:29:07.333Z,2.17
2023-05-15T09:30:07.071Z,3.15
2023-05-15T09:31:07.030Z,2.47
2023-05-15T09:32:07.399Z,3.31
2023-05-15T09:33:08.963Z,3.07
2023-05-15T09:34:07.391Z,2.98
2023-05-15T09:35:07.245Z,2.51
2023-05-15T09:36:07.303Z,2.89
2023-05-15T09:37:07.401Z,2.98
2023-05-15T09:38:07.327Z,2.39
2023-05-15T09:39:07.333Z,2.57
2023-05-15T09:40:07.338Z,3.05
2023-05-15T09:41:07.406Z,2.75
2023-05-15T09:42:07.345Z,3.20
2023-05-15T09:43:07.370Z,2.77
2023-05-15T09:44:07.375Z,2.66
2023-05-15T09:45:07.370Z,3.05
2023-05-15T09:46:07.586Z,2.91
2023-05-15T09:47:07.475Z,1.99
2023-05-15T09:48:07.472Z,2.63
2023-05-15T09:49:08.336Z,2.61
2023-05-15T09:50:07.450Z,2.95
2023-05-15T09:51:07.496Z,2.73
2023-05-15T09:52:07.485Z,3.36
2023-05-15T09:53:07.519Z,1.89
2023-05-15T09:54:07.600Z,2.05
2023-05-15T09:55:07.628Z,2.21
2023-05-15T09:56:07.658Z,1.95
2023-05-15T09:57:07.642Z,1.72
2023-05-15T09:58:07.624Z,1.51
2023-05-15T09:59:07.630Z,1.84
2023-05-15T10:00:07.881Z,3.08
2023-05-15T10:01:07.861Z,2.70
2023-05-15T10:02:07.637Z,1.91
2023-05-15T10:03:07.717Z,2.52
2023-05-15T10:04:07.662Z,2.21
2023-05-15T10:05:08.400Z,1.39
2023-05-15T10:06:07.742Z,1.35
2023-05-15T10:07:07.667Z,1.80
2023-05-15T10:08:07.681Z,1.94
2023-05-15T10:09:07.703Z,2.31
2023-05-15T10:10:07.719Z,1.57
2023-05-15T10:11:07.740Z,1.86
2023-05-15T10:12:08.976Z,1.91
2023-05-15T10:13:08.006Z,1.95
2023-05-15T10:14:07.948Z,1.57
2023-05-15T10:15:07.986Z,2.03
2023-05-15T10:16:08.354Z,1.75
2023-05-15T10:17:08.146Z,1.62
2023-05-15T10:18:08.187Z,1.64
2023-05-15T10:19:08.314Z,3.78
2023-05-15T10:20:08.388Z,1.99
2023-05-15T10:21:08.333Z,2.03
2023-05-15T10:22:08.383Z,1.92
2023-05-15T10:23:08.454Z,1.99
2023-05-15T10:24:08.558Z,2.93
2023-05-15T10:25:08.870Z,2.07
2023-05-15T10:26:08.658Z,1.80
2023-05-15T10:27:08.746Z,1.67
2023-05-15T10:28:08.788Z,1.64
2023-05-15T10:29:08.988Z,2.01
2023-05-15T10:30:08.971Z,1.67
2023-05-15T10:31:08.831Z,2.18
2023-05-15T10:32:10.360Z,2.52
2023-05-15T10:33:08.846Z,2.02
2023-05-15T10:34:08.791Z,1.39
2023-05-15T10:35:08.807Z,2.48
2023-05-15T10:36:08.791Z,2.18
2023-05-15T10:37:08.737Z,1.93
2023-05-15T10:38:08.823Z,2.12
2023-05-15T10:39:08.809Z,1.96
2023-05-15T10:40:08.817Z,2.08
2023-05-15T10:41:17.178Z,2.40
2023-05-15T10:42:09.862Z,2.56
2023-05-15T10:43:08.899Z,1.74
2023-05-15T10:44:08.981Z,2.34
2023-05-15T10:45:08.866Z,1.98
2023-05-15T10:46:08.824Z,2.71
2023-05-15T10:47:09.188Z,2.20
2023-05-15T10:48:08.811Z,1.81
2023-05-15T10:49:08.840Z,1.81
2023-05-15T10:50:08.831Z,2.22
2023-05-15T10:51:10.633Z,2.39
2023-05-15T10:52:08.956Z,2.17
2023-05-15T10:53:08.963Z,1.55
2023-05-15T10:54:09.374Z,2.18
2023-05-15T10:55:09.095Z,2.17
2023-05-15T10:56:09.092Z,1.54
2023-05-15T10:57:09.137Z,1.81
2023-05-15T10:58:09.185Z,1.73
2023-05-15T10:59:09.328Z,2.34
2023-05-15T11:00:09.312Z,1.90
2023-05-15T11:01:09.922Z,1.92
2023-05-15T11:02:09.373Z,1.33
2023-05-15T11:03:09.486Z,2.35
2023-05-15T11:04:09.543Z,1.87
2023-05-15T11:05:09.552Z,2.15
2023-05-15T11:06:09.615Z,2.33
2023-05-15T11:07:09.637Z,1.88
2023-05-15T11:08:09.658Z,1.75
2023-05-15T11:09:09.682Z,2.28
2023-05-15T11:10:09.759Z,2.40
2023-05-15T11:11:10.479Z,1.74
2023-05-15T11:12:09.858Z,1.51
2023-05-15T11:13:10.379Z,2.12
2023-05-15T11:14:09.917Z,2.37
2023-05-15T11:15:09.986Z,2.43
2023-05-15T11:16:11.590Z,2.49
2023-05-15T11:17:10.115Z,1.66
2023-05-15T11:18:10.120Z,2.40
2023-05-15T11:19:10.163Z,2.12
2023-05-15T11:20:10.212Z,2.20
2023-05-15T11:21:11.865Z,2.70
2023-05-15T11:22:10.231Z,2.08
2023-05-15T11:23:10.234Z,2.05
2023-05-15T11:24:10.295Z,2.48
2023-05-15T11:25:10.329Z,1.99
2023-05-15T11:26:10.378Z,2.23
2023-05-15T11:27:10.447Z,2.48
2023-05-15T11:28:11.401Z,2.25
2023-05-15T11:29:10.484Z,1.65
2023-05-15T11:30:10.556Z,2.01
2023-05-15T11:31:10.616Z,2.27
2023-05-15T11:32:10.711Z,1.69
2023-05-15T11:33:10.753Z,1.96
2023-05-15T11:34:10.822Z,1.70
2023-05-15T11:35:10.837Z,2.06
2023-05-15T11:36:10.875Z,2.51
2023-05-15T11:37:10.936Z,1.93
2023-05-15T11:38:11.075Z,1.85
2023-05-15T11:39:11.162Z,2.19
2023-05-15T11:40:11.320Z,1.94
2023-05-15T11:41:11.284Z,2.00
2023-05-15T11:42:11.343Z,2.23
2023-05-15T11:43:11.372Z,1.37
2023-05-15T11:44:11.513Z,1.94
2023-05-15T11:45:11.495Z,1.81
2023-05-15T11:46:11.606Z,1.96
2023-05-15T11:47:11.726Z,1.58
2023-05-15T11:48:11.719Z,1.69
2023-05-15T11:49:11.759Z,1.49
2023-05-15T11:50:11.854Z,2.09
2023-05-15T11:51:12.039Z,1.95
2023-05-15T11:52:11.908Z,1.59
2023-05-15T11:53:12.025Z,1.79
2023-05-15T11:54:12.402Z,1.56
2023-05-15T11:55:12.142Z,1.54
2023-05-15T11:56:12.170Z,1.98
2023-05-15T11:57:12.279Z,1.44
2023-05-15T11:58:12.324Z,1.57
2023-05-15T11:59:12.433Z,2.02
2023-05-15T12:00:12.390Z,1.63
2023-05-15T12:01:12.508Z,1.82
2023-05-15T12:02:12.558Z,1.56
2023-05-15T12:03:12.619Z,2.08
2023-05-15T12:04:13.068Z,2.00
2023-05-15T12:05:12.778Z,1.75
2023-05-15T12:06:12.736Z,2.22
2023-05-15T12:07:12.856Z,1.82
2023-05-15T12:08:12.861Z,1.44
2023-05-15T12:09:12.908Z,1.64
2023-05-15T12:10:12.937Z,1.94
2023-05-15T12:11:12.975Z,2.28
2023-05-15T12:12:13.461Z,1.83
2023-05-15T12:13:13.870Z,1.54
2023-05-15T12:14:12.911Z,1.36
2023-05-15T12:15:12.988Z,2.26
2023-05-15T12:16:13.026Z,1.66
2023-05-15T12:17:12.981Z,1.49
2023-05-15T12:18:13.081Z,1.54
2023-05-15T12:19:13.600Z,1.89
2023-05-15T12:20:13.022Z,1.71
2023-05-15T12:21:13.053Z,1.33
2023-05-15T12:22:13.464Z,1.61
2023-05-15T12:23:13.091Z,1.77
2023-05-15T12:24:13.135Z,1.34
2023-05-15T12:25:13.144Z,1.71
2023-05-15T12:26:13.140Z,1.60
2023-05-15T12:27:13.200Z,1.92
2023-05-15T12:28:13.230Z,1.77
2023-05-15T12:29:13.254Z,1.15
2023-05-15T12:30:13.394Z,1.46
2023-05-15T12:31:13.358Z,1.84
2023-05-15T12:32:13.389Z,1.25
2023-05-15T12:33:13.524Z,1.31
2023-05-15T12:34:13.904Z,1.30
2023-05-15T12:35:13.558Z,1.32
2023-05-15T12:36:13.558Z,1.61
2023-05-15T12:37:13.581Z,1.75
2023-05-15T12:38:13.695Z,2.31
2023-05-15T12:39:13.660Z,2.01
2023-05-15T12:40:13.889Z,1.43
2023-05-15T12:41:13.887Z,1.74
2023-05-15T12:42:13.784Z,1.57
2023-05-15T12:43:13.976Z,1.42
2023-05-15T12:44:13.819Z,1.66
2023-05-15T12:45:13.855Z,1.40
2023-05-15T12:46:14.000Z,1.30
2023-05-15T12:47:14.937Z,1.67
2023-05-15T12:48:14.023Z,1.38
2023-05-15T12:49:13.987Z,1.53
2023-05-15T12:50:14.044Z,1.81
2023-05-15T12:51:14.086Z,1.52
2023-05-15T12:52:14.153Z,1.52
2023-05-15T12:53:14.160Z,1.60
2023-05-15T12:54:14.233Z,1.43
2023-05-15T12:55:14.187Z,1.75
2023-05-15T12:56:14.278Z,1.57
2023-05-15T12:57:14.300Z,1.73
2023-05-15T12:58:14.429Z,1.78
2023-05-15T12:59:14.472Z,1.61
2023-05-15T13:00:14.580Z,1.55
2023-05-15T13:01:14.599Z,1.55
2023-05-15T13:02:14.710Z,1.84
2023-05-15T13:03:14.705Z,1.36
2023-05-15T13:04:14.704Z,1.38
2023-05-15T13:05:14.811Z,1.38
2023-05-15T13:06:14.810Z,1.50
2023-05-15T13:07:14.840Z,1.31
2023-05-15T13:08:14.876Z,1.14
2023-05-15T13:09:14.939Z,1.65
2023-05-15T13:10:14.883Z,1.60
2023-05-15T13:11:15.018Z,1.14
2023-05-15T13:12:15.876Z,1.40
2023-05-15T13:13:15.004Z,1.72
2023-05-15T13:14:15.024Z,1.45
2023-05-15T13:15:14.970Z,1.85
2023-05-15T13:16:15.112Z,1.72
2023-05-15T13:17:15.916Z,1.47
2023-05-15T13:18:15.097Z,1.34
2023-05-15T13:19:15.169Z,1.45